• Join FlightAware (Why Join?)
  • Login
  • US Flag 
03:29PM EDT


 

Airport Tracker/Info


-or-


 

Live Flight TrackerFlight Track Log ✈ GLO1521 ✈ 31-Jan-2014 ✈ SBNF / NVT - SBSP / CGH

Flight Track Log - Related Links

Times and Time Zones

All times are in EST time to prevent confusion due to time zone crossing. See the GLO1521 flight status page for this flight to view local times or setup timezone preferences in your user account.

Time Position Orientation Groundspeed Altitude Reporting Facility
EST Latitude Longitude Course Direction KTS MPH feet Rate Location/Type
04:53AM -26.0798 -48.1148 29° Northeast  Level Estimated
04:54AM -26.0080 -48.0711 29° Northeast  Level Estimated
04:54AM -25.8222 -47.8905 29° Northeast 450 518 29,900  Level FlightAware ADS-B
04:55AM -25.7535 -47.8183 43° Northeast 429 494 33,200 2,460 Climbing FlightAware ADS-B
04:56AM -25.6476 -47.7074 43° Northeast 429 494 34,900 780 Climbing FlightAware ADS-B
04:57AM -25.5610 -47.6169 43° Northeast 432 497 35,000  Climbing FlightAware ADS-B
04:58AM -25.4739 -47.5263 43° Northeast 433 498 35,000  Level FlightAware ADS-B
04:59AM -25.3844 -47.4332 43° Northeast 435 501 35,000  Level FlightAware ADS-B
05:00AM -25.2984 -47.3439 43° Northeast 438 504 35,000  Level FlightAware ADS-B
05:01AM -25.2142 -47.2613 42° Northeast 434 499 35,000 -180 Level FlightAware ADS-B
05:02AM -25.0995 -47.2074 23° Northeast 427 491 34,700 -1,140 Descending FlightAware ADS-B
05:03AM -25.0364 -47.1820 20° North 428 493 33,200 -2,700 Descending FlightAware ADS-B (SBMT / SAO)
05:04AM -24.8707 -47.1150 20° North 419 482 29,200 -2,580 Descending FlightAware ADS-B
05:05AM -24.7636 -47.0719 20° North 402 463 26,800 -2,340 Descending FlightAware ADS-B
05:06AM -24.6634 -47.0317 20° North 387 445 24,600 -2,340 Descending FlightAware ADS-B
05:07AM -24.6136 -47.0117 20° North 377 434 23,400 -2,220 Descending FlightAware ADS-B (SBMT / SAO)
05:07AM -24.5647 -46.9921 20° North 370 426 22,400 -2,100 Descending FlightAware ADS-B
05:08AM -24.4716 -46.9506 22° Northeast 359 413 20,300 -2,220 Descending FlightAware ADS-B
05:09AM -24.4228 -46.9255 25° Northeast 354 407 19,100 -2,100 Descending FlightAware ADS-B (SBMT / SAO)
05:10AM -24.2948 -46.8594 25° Northeast 343 395 16,100 -2,040 Descending FlightAware ADS-B
05:11AM -24.2085 -46.8148 25° Northeast 335 386 14,000 -1,860 Descending FlightAware ADS-B
05:12AM -24.1284 -46.7737 25° Northeast 313 360 12,500 -1,440 Descending FlightAware ADS-B
05:13AM -24.0882 -46.7532 25° Northeast 290 334 11,900 -1,200 Descending FlightAware ADS-B (SBMT / SAO)
05:14AM -23.9910 -46.7030 25° Northeast 248 285 10,200 -1,200 Descending FlightAware ADS-B
05:15AM -23.9604 -46.6873 25° Northeast 245 282 9,600 -1,140 Descending FlightAware ADS-B (SBMT / SAO)
05:15AM -23.9280 -46.6708 25° Northeast 246 283 9,100 -1,020 Descending FlightAware ADS-B
05:16AM -23.8687 -46.6344 29° Northeast 239 275 8,100 -900 Descending FlightAware ADS-B
05:17AM -23.8491 -46.6099 49° Northeast 220 253 7,800 -900 Descending FlightAware ADS-B (SBMT / SAO)
05:17AM -23.8269 -46.5817 49° Northeast 214 246 7,200 -1,140 Descending FlightAware ADS-B
05:18AM -23.7837 -46.5466 37° Northeast 210 242 6,100 -1,200 Descending FlightAware ADS-B
05:19AM -23.7606 -46.5636 326° Northwest 193 222 5,500 -1,260 Descending FlightAware ADS-B (SBMT / SAO)
05:19AM -23.7395 -46.5788 327° Northwest 181 208 4,900 -1,020 Descending FlightAware ADS-B
05:20AM -23.7009 -46.6052 328° Northwest 137 158 4,000 -900 Descending FlightAware ADS-B
05:21AM -23.6861 -46.6155 328° Northwest 122 140 3,600 -780 Descending FlightAware ADS-B (SBMT / SAO)
05:21AM -23.6722 -46.6249 328° Northwest 125 144 3,300 -720 Descending FlightAware ADS-B
05:22AM -23.6423 -46.6457 327° Northwest 138 159 2,600 -480 Descending FlightAware ADS-B
05:23AM -23.6221 -46.6596 328° Northwest 138 159 2,400 -240 Descending FlightAware ADS-B
05:26AM -23.6267 -46.6554 140° Southeast  Level Estimated
05:27AM -23.6267 -46.6554 114° Southeast  Level Estimated
05:28AM -23.6267 -46.6554 114° Southeast  Level Estimated
05:29AM -23.6267 -46.6554 114° Southeast  Level Estimated